createdAt,value
2023-01-26T00:00:41.171Z,198.65
2023-01-26T00:03:24.433Z,165.73
2023-01-26T00:05:55.275Z,187.88
2023-01-26T00:08:26.634Z,192.48
2023-01-26T00:11:00.529Z,197.70
2023-01-26T00:13:31.693Z,191.43
2023-01-26T00:18:34.113Z,200.75
2023-01-26T00:21:05.702Z,176.23
2023-01-26T00:23:38.505Z,200.40
2023-01-26T00:26:14.225Z,193.60
2023-01-26T00:28:45.631Z,184.18
2023-01-26T00:31:19.312Z,177.50
2023-01-26T00:33:50.682Z,170.20
2023-01-26T00:36:21.952Z,192.95
2023-01-26T00:38:53.123Z,178.57
2023-01-26T00:41:38.892Z,160.20
2023-01-26T00:44:10.344Z,193.95
2023-01-26T00:46:41.183Z,194.27
2023-01-26T00:49:12.641Z,186.30
2023-01-26T00:51:43.389Z,188.18
2023-01-26T00:54:14.863Z,200.30
2023-01-26T00:56:48.172Z,182.95
2023-01-26T00:59:19.591Z,195.38
2023-01-26T01:01:51.170Z,181.70
2023-01-26T01:04:22.275Z,176.35
2023-01-26T01:06:53.371Z,180.30
2023-01-26T01:09:25.045Z,164.48
2023-01-26T01:14:29.347Z,181.48
2023-01-26T01:19:31.003Z,163.05
2023-01-26T01:22:01.890Z,170.85
2023-01-26T01:24:34.622Z,158.75
2023-01-26T01:27:07.975Z,163.63
2023-01-26T01:29:39.273Z,152.15
2023-01-26T01:32:10.027Z,172.18
2023-01-26T01:34:41.095Z,150.32
2023-01-26T01:39:42.783Z,157.73
2023-01-26T01:42:16.924Z,143.27
2023-01-26T01:45:10.416Z,156.20
2023-01-26T01:47:41.235Z,159.23
2023-01-26T01:50:18.224Z,158.65
2023-01-26T01:52:49.358Z,128.32
2023-01-26T01:55:20.726Z,143.75
2023-01-26T01:58:00.493Z,134.00
2023-01-26T02:00:32.433Z,146.80
2023-01-26T02:03:19.532Z,137.85
2023-01-26T02:05:59.243Z,139.23
2023-01-26T02:08:36.619Z,127.65
2023-01-26T02:11:10.904Z,140.20
2023-01-26T02:13:45.511Z,147.45
2023-01-26T02:16:17.492Z,145.50
2023-01-26T02:18:49.120Z,154.32
2023-01-26T02:21:23.406Z,150.95
2023-01-26T02:24:08.124Z,181.73
2023-01-26T02:26:42.449Z,136.95
2023-01-26T02:29:15.215Z,145.52
2023-01-26T02:31:48.988Z,144.73
2023-01-26T02:34:20.503Z,148.55
2023-01-26T02:37:00.953Z,133.00
2023-01-26T02:39:47.812Z,157.67
2023-01-26T02:42:35.754Z,137.52
2023-01-26T02:45:07.348Z,141.18
2023-01-26T02:47:40.648Z,150.10
2023-01-26T02:50:11.684Z,156.45
2023-01-26T02:52:43.236Z,141.98
2023-01-26T02:55:26.664Z,149.65
2023-01-26T02:58:02.700Z,144.38
2023-01-26T03:00:41.005Z,146.55
2023-01-26T03:03:18.752Z,141.15
2023-01-26T03:05:50.517Z,156.07
2023-01-26T03:08:22.256Z,153.00
2023-01-26T03:13:26.751Z,151.07
2023-01-26T03:16:02.939Z,149.52
2023-01-26T03:18:46.445Z,144.90
2023-01-26T03:21:31.973Z,130.82
2023-01-26T03:24:16.220Z,143.77
2023-01-26T03:26:59.895Z,144.23
2023-01-26T03:29:34.222Z,137.70
2023-01-26T03:32:05.893Z,150.05
2023-01-26T03:34:37.648Z,137.23
2023-01-26T03:37:09.080Z,149.93
2023-01-26T03:40:09.877Z,127.40
2023-01-26T03:42:54.158Z,137.77
2023-01-26T03:45:40.891Z,149.60
2023-01-26T03:48:25.624Z,151.15
2023-01-26T03:51:09.297Z,156.55
2023-01-26T03:53:52.491Z,159.63
2023-01-26T03:56:24.768Z,156.88
2023-01-26T03:59:08.775Z,151.07
2023-01-26T04:02:00.221Z,151.68
2023-01-26T04:04:43.745Z,147.68
2023-01-26T04:07:28.247Z,146.80
2023-01-26T04:09:59.090Z,139.50
2023-01-26T04:12:30.191Z,144.75
2023-01-26T04:15:29.105Z,132.60
2023-01-26T04:18:21.684Z,145.25
2023-01-26T04:21:04.763Z,137.98
2023-01-26T04:23:36.370Z,143.40
2023-01-26T04:26:07.451Z,123.88
2023-01-26T04:28:38.598Z,141.75
2023-01-26T04:31:09.862Z,133.05
2023-01-26T04:33:44.861Z,135.43
2023-01-26T04:36:16.007Z,149.00
2023-01-26T04:38:51.609Z,137.18
2023-01-26T04:41:24.152Z,152.10
2023-01-26T04:44:03.124Z,135.80
2023-01-26T04:46:34.304Z,143.45
2023-01-26T04:49:09.605Z,125.95
2023-01-26T04:51:40.366Z,132.73
2023-01-26T04:54:12.248Z,145.35
2023-01-26T04:56:46.917Z,131.10
2023-01-26T04:59:18.155Z,133.80
2023-01-26T05:01:49.071Z,121.53
2023-01-26T05:04:22.849Z,132.68
2023-01-26T05:06:53.917Z,110.15
2023-01-26T05:09:28.000Z,136.82
2023-01-26T05:12:31.620Z,139.00
2023-01-26T05:15:35.090Z,114.00
2023-01-26T05:18:24.827Z,127.88
2023-01-26T05:21:02.341Z,119.95
2023-01-26T05:23:41.139Z,135.45
2023-01-26T05:26:31.131Z,125.25
2023-01-26T05:29:08.754Z,122.25
2023-01-26T05:31:41.369Z,126.63
2023-01-26T05:34:12.467Z,134.07
2023-01-26T05:36:47.129Z,123.35
2023-01-26T05:39:17.869Z,136.25
2023-01-26T05:41:49.636Z,142.00
2023-01-26T05:44:46.518Z,136.50
2023-01-26T05:47:19.998Z,165.23
2023-01-26T05:49:52.992Z,139.43
2023-01-26T05:52:33.977Z,177.95
2023-01-26T05:55:04.835Z,147.45
2023-01-26T05:57:36.904Z,156.02
2023-01-26T06:00:11.509Z,163.82
2023-01-26T06:02:48.683Z,154.43
2023-01-26T06:05:21.020Z,152.80
2023-01-26T06:07:56.361Z,152.57
2023-01-26T06:10:32.562Z,168.45
2023-01-26T06:13:26.995Z,146.50
2023-01-26T06:16:06.532Z,157.90
2023-01-26T06:18:39.786Z,142.85
2023-01-26T06:21:10.782Z,169.02
2023-01-26T06:23:44.803Z,186.70
2023-01-26T06:26:17.160Z,175.90
2023-01-26T06:28:49.119Z,162.02
2023-01-26T06:31:21.332Z,161.00
2023-01-26T06:33:53.793Z,182.95
2023-01-26T06:36:24.780Z,195.23
2023-01-26T06:39:00.774Z,170.05
2023-01-26T06:41:33.139Z,178.48
2023-01-26T06:44:04.420Z,174.35
2023-01-26T06:49:07.978Z,149.10
2023-01-26T06:51:50.861Z,190.48
2023-01-26T06:54:24.896Z,184.20
2023-01-26T06:57:21.866Z,163.23
2023-01-26T07:00:20.026Z,165.15
2023-01-26T07:02:59.815Z,187.15
2023-01-26T07:05:31.410Z,201.85
2023-01-26T07:08:04.550Z,196.05
2023-01-26T07:10:38.889Z,190.95
2023-01-26T07:13:10.876Z,150.05
2023-01-26T07:15:41.938Z,180.80
2023-01-26T07:18:12.641Z,173.00
2023-01-26T07:20:43.992Z,159.68
2023-01-26T07:23:15.523Z,188.68
2023-01-26T07:25:49.549Z,149.25
2023-01-26T07:28:21.091Z,169.77
2023-01-26T07:30:52.697Z,175.63
2023-01-26T07:33:23.533Z,177.63
2023-01-26T07:35:56.675Z,195.65
2023-01-26T07:38:29.191Z,179.43
2023-01-26T07:41:07.737Z,159.32
2023-01-26T07:43:42.268Z,157.10
2023-01-26T07:46:14.279Z,155.77
2023-01-26T07:48:45.190Z,175.20
2023-01-26T07:51:16.280Z,179.75
2023-01-26T07:53:50.142Z,248.55
2023-01-26T07:56:23.992Z,255.93
2023-01-26T07:58:55.936Z,310.20
2023-01-26T08:01:27.478Z,296.75
2023-01-26T08:03:59.197Z,329.92
2023-01-26T08:06:30.743Z,255.98
2023-01-26T08:09:01.570Z,223.63
2023-01-26T08:11:35.768Z,205.45
2023-01-26T08:14:06.636Z,201.68
2023-01-26T08:16:37.852Z,206.57
2023-01-26T08:21:40.070Z,234.57
2023-01-26T08:24:11.453Z,234.95
2023-01-26T08:26:45.190Z,220.55
2023-01-26T08:29:21.047Z,186.00
2023-01-26T08:31:53.752Z,205.95
2023-01-26T08:34:26.790Z,220.25
2023-01-26T08:36:58.428Z,188.75
2023-01-26T08:39:29.972Z,199.52
2023-01-26T08:42:04.192Z,212.48
2023-01-26T08:44:34.958Z,205.25
2023-01-26T08:47:06.491Z,209.77
2023-01-26T08:49:37.225Z,209.68
2023-01-26T08:52:08.745Z,228.60
2023-01-26T08:54:39.542Z,209.02
2023-01-26T08:57:13.316Z,246.18
2023-01-26T08:59:44.218Z,242.77
2023-01-26T09:02:15.482Z,240.35
2023-01-26T09:07:17.045Z,236.25
2023-01-26T09:09:47.912Z,301.83
2023-01-26T09:12:21.587Z,258.17
2023-01-26T09:14:52.299Z,213.85
2023-01-26T09:17:24.272Z,300.55
2023-01-26T09:19:54.960Z,264.70
2023-01-26T09:22:26.065Z,340.05
2023-01-26T09:24:56.781Z,311.90
2023-01-26T09:27:31.268Z,281.23
2023-01-26T09:30:02.199Z,293.80
2023-01-26T09:32:33.508Z,347.23
2023-01-26T09:37:35.042Z,230.20
2023-01-26T09:42:46.617Z,266.20
2023-01-26T09:45:30.216Z,306.33
2023-01-26T09:48:25.604Z,216.05
2023-01-26T09:51:03.322Z,239.93
2023-01-26T09:53:44.389Z,203.38
2023-01-26T09:56:21.569Z,193.45
2023-01-26T09:59:02.921Z,199.27
2023-01-26T10:04:17.936Z,235.80
2023-01-26T10:06:50.339Z,214.90
2023-01-26T10:09:50.530Z,195.55
2023-01-26T10:12:26.218Z,221.38
2023-01-26T10:15:05.936Z,229.07
2023-01-26T10:17:40.093Z,218.13
2023-01-26T10:20:21.405Z,192.18
2023-01-26T10:25:29.705Z,196.25
2023-01-26T10:28:00.680Z,201.93
2023-01-26T10:30:34.433Z,199.18
2023-01-26T10:33:05.419Z,183.73
2023-01-26T10:35:36.816Z,214.88
2023-01-26T10:38:27.641Z,194.55
2023-01-26T10:40:59.087Z,174.45
2023-01-26T10:43:29.844Z,197.48
2023-01-26T10:46:06.127Z,186.90
2023-01-26T10:48:37.979Z,191.63
2023-01-26T10:51:19.125Z,179.32
2023-01-26T10:56:20.894Z,176.48
2023-01-26T11:01:27.847Z,172.45
2023-01-26T11:04:08.953Z,188.95
2023-01-26T11:06:41.320Z,214.63
2023-01-26T11:09:13.754Z,187.77
2023-01-26T11:11:57.929Z,167.40
2023-01-26T11:14:28.696Z,185.65
2023-01-26T11:17:17.384Z,180.15
2023-01-26T11:20:14.394Z,153.18
2023-01-26T11:22:50.817Z,170.40
2023-01-26T11:25:29.007Z,150.90
2023-01-26T11:28:20.898Z,157.57
2023-01-26T11:31:14.194Z,164.90
2023-01-26T11:33:58.557Z,185.25
2023-01-26T11:36:39.271Z,148.60
2023-01-26T11:39:19.462Z,145.52
2023-01-26T11:42:02.992Z,156.93
2023-01-26T11:44:59.171Z,142.80
2023-01-26T11:47:43.048Z,158.07
2023-01-26T11:50:29.558Z,145.80
2023-01-26T11:53:33.588Z,154.18
2023-01-26T11:56:18.695Z,157.98
2023-01-26T11:58:54.660Z,150.30
2023-01-26T12:01:29.268Z,165.40
2023-01-26T12:04:00.838Z,150.45
2023-01-26T12:06:40.414Z,139.27
2023-01-26T12:09:19.221Z,143.57
2023-01-26T12:11:56.228Z,161.77
2023-01-26T12:14:30.968Z,190.75
2023-01-26T12:17:35.033Z,178.23
2023-01-26T12:20:23.082Z,177.15
2023-01-26T12:23:03.748Z,162.52
2023-01-26T12:25:37.975Z,158.43
2023-01-26T12:28:18.653Z,149.07
2023-01-26T12:30:56.794Z,166.15
2023-01-26T12:33:28.794Z,161.35
2023-01-26T12:36:19.074Z,148.57
2023-01-26T12:39:15.767Z,145.25
2023-01-26T12:42:02.886Z,168.45
2023-01-26T12:44:42.015Z,145.95
2023-01-26T12:47:21.624Z,157.55
2023-01-26T12:50:00.277Z,157.93
2023-01-26T12:52:38.655Z,154.95
2023-01-26T12:55:18.492Z,157.25
2023-01-26T12:57:53.745Z,161.18
2023-01-26T13:00:27.767Z,145.68
2023-01-26T13:03:03.948Z,143.70
2023-01-26T13:05:37.965Z,162.98
2023-01-26T13:08:38.622Z,161.57
2023-01-26T13:13:56.793Z,158.18
2023-01-26T13:16:37.749Z,138.13
2023-01-26T13:19:08.538Z,142.07
2023-01-26T13:21:49.512Z,135.35
2023-01-26T13:24:48.932Z,139.63
2023-01-26T13:27:47.500Z,128.43
2023-01-26T13:30:46.388Z,145.15
2023-01-26T13:33:23.139Z,146.65
2023-01-26T13:35:56.727Z,226.68
2023-01-26T13:38:36.389Z,200.05
2023-01-26T13:41:12.661Z,192.75
2023-01-26T13:43:51.998Z,158.75
2023-01-26T13:46:29.800Z,161.23
2023-01-26T13:49:01.756Z,154.30
2023-01-26T13:51:34.817Z,150.18
2023-01-26T13:54:07.917Z,134.68
2023-01-26T13:56:41.766Z,151.57
2023-01-26T13:59:19.000Z,155.05
2023-01-26T14:01:51.696Z,156.98
2023-01-26T14:04:24.955Z,149.52
2023-01-26T14:06:59.630Z,143.00
2023-01-26T14:09:33.477Z,222.93
2023-01-26T14:12:06.451Z,278.35
2023-01-26T14:14:41.589Z,272.17
2023-01-26T14:17:28.872Z,327.75
2023-01-26T14:20:03.907Z,294.60
2023-01-26T14:22:34.864Z,225.02
2023-01-26T14:25:12.326Z,194.18
2023-01-26T14:27:44.788Z,150.50
2023-01-26T14:30:31.142Z,120.40
2023-01-26T14:33:07.050Z,141.73
2023-01-26T14:35:38.287Z,187.98
2023-01-26T14:40:49.901Z,191.70
2023-01-26T14:43:20.985Z,276.30
2023-01-26T14:45:58.452Z,196.75
2023-01-26T14:48:34.755Z,165.32
2023-01-26T14:51:09.839Z,132.95
2023-01-26T14:53:40.687Z,197.65
2023-01-26T14:56:21.837Z,277.92
2023-01-26T14:58:55.770Z,321.05
2023-01-26T15:01:30.950Z,371.70
2023-01-26T15:04:04.907Z,460.42
2023-01-26T15:06:37.703Z,714.47
2023-01-26T15:09:23.164Z,617.13
2023-01-26T15:12:11.391Z,663.97
2023-01-26T15:14:52.090Z,444.27
2023-01-26T15:17:41.709Z,455.02
2023-01-26T15:20:43.561Z,377.73
2023-01-26T15:23:26.244Z,231.43
2023-01-26T15:25:57.700Z,196.45
2023-01-26T15:28:29.621Z,196.27
2023-01-26T15:31:01.112Z,168.75
2023-01-26T15:33:52.724Z,115.30
2023-01-26T15:36:30.358Z,108.55
2023-01-26T15:39:07.015Z,124.35
2023-01-26T15:41:37.821Z,132.35
2023-01-26T15:44:09.218Z,171.43
2023-01-26T15:46:40.633Z,198.90
2023-01-26T15:49:24.396Z,174.20
2023-01-26T15:52:02.062Z,155.02
2023-01-26T15:54:33.599Z,139.35
2023-01-26T15:59:35.114Z,116.05
2023-01-26T16:02:06.038Z,198.43
2023-01-26T16:04:39.691Z,245.85
2023-01-26T16:07:14.752Z,259.45
2023-01-26T16:09:45.929Z,199.88
2023-01-26T16:15:04.368Z,151.77
2023-01-26T16:17:35.296Z,132.00
2023-01-26T16:20:10.086Z,196.52
2023-01-26T16:22:40.867Z,197.65
2023-01-26T16:25:23.612Z,277.70
2023-01-26T16:27:54.864Z,252.15
2023-01-26T16:30:26.290Z,200.20
2023-01-26T16:32:57.086Z,120.53
2023-01-26T16:35:31.859Z,127.80
2023-01-26T16:38:04.398Z,94.68
2023-01-26T16:40:35.887Z,97.70
2023-01-26T16:43:07.163Z,102.25
2023-01-26T16:45:39.566Z,207.20
2023-01-26T16:48:15.806Z,178.68
2023-01-26T16:50:53.313Z,145.95
2023-01-26T16:53:28.953Z,196.50
2023-01-26T16:56:00.574Z,152.48
2023-01-26T16:58:33.381Z,158.73
2023-01-26T17:01:04.619Z,123.55
2023-01-26T17:06:08.992Z,158.13
2023-01-26T17:08:45.014Z,174.38
2023-01-26T17:11:21.818Z,186.18
2023-01-26T17:13:53.314Z,212.27
2023-01-26T17:16:27.164Z,183.23
2023-01-26T17:18:58.589Z,150.77
2023-01-26T17:21:32.428Z,191.75
2023-01-26T17:24:03.889Z,187.82
2023-01-26T17:26:35.093Z,215.80
2023-01-26T17:31:36.816Z,169.45
2023-01-26T17:36:44.279Z,126.30
2023-01-26T17:39:18.936Z,149.10
2023-01-26T17:41:50.360Z,142.43
2023-01-26T17:46:52.579Z,239.60
2023-01-26T17:49:25.262Z,166.60
2023-01-26T17:51:59.335Z,157.90
2023-01-26T17:54:30.161Z,128.82
2023-01-26T17:57:01.556Z,123.65
2023-01-26T17:59:32.917Z,109.43
2023-01-26T18:02:04.151Z,106.78
2023-01-26T18:04:35.452Z,121.28
2023-01-26T18:07:09.420Z,107.78
2023-01-26T18:09:40.298Z,119.43
2023-01-26T18:12:11.511Z,112.10
2023-01-26T18:17:13.251Z,114.82
2023-01-26T18:22:18.063Z,116.82
2023-01-26T18:24:50.615Z,120.45
2023-01-26T18:27:22.398Z,147.88
2023-01-26T18:29:53.466Z,170.48
2023-01-26T18:32:26.432Z,158.82
2023-01-26T18:34:57.870Z,170.65
2023-01-26T18:37:33.785Z,151.35
2023-01-26T18:40:08.124Z,158.05
2023-01-26T18:42:39.909Z,147.80
2023-01-26T18:45:12.309Z,151.27
2023-01-26T18:47:43.497Z,212.07
2023-01-26T18:52:49.523Z,187.07
2023-01-26T18:55:20.605Z,141.50
2023-01-26T18:57:51.826Z,120.10
2023-01-26T19:00:23.638Z,122.40
2023-01-26T19:02:55.132Z,153.18
2023-01-26T19:05:26.185Z,117.13
2023-01-26T19:08:10.215Z,120.32
2023-01-26T19:10:41.433Z,110.90
2023-01-26T19:13:13.357Z,112.20
2023-01-26T19:15:48.833Z,118.03
2023-01-26T19:18:20.471Z,176.00
2023-01-26T19:20:58.730Z,170.55
2023-01-26T19:23:33.185Z,147.55
2023-01-26T19:26:04.125Z,146.32
2023-01-26T19:28:35.679Z,142.10
2023-01-26T19:31:08.053Z,120.18
2023-01-26T19:33:39.348Z,118.95
2023-01-26T19:36:11.836Z,111.82
2023-01-26T19:38:46.236Z,116.57
2023-01-26T19:41:17.184Z,101.97
2023-01-26T19:43:48.293Z,114.78
2023-01-26T19:48:52.353Z,125.35
2023-01-26T19:51:25.482Z,125.88
2023-01-26T19:54:01.465Z,120.85
2023-01-26T19:56:35.617Z,128.95
2023-01-26T19:59:10.339Z,136.32
2023-01-26T20:01:41.495Z,159.20
2023-01-26T20:04:16.664Z,178.48
2023-01-26T20:06:51.488Z,176.25
2023-01-26T20:09:26.133Z,175.00
2023-01-26T20:11:57.498Z,186.82
2023-01-26T20:14:28.634Z,155.95
2023-01-26T20:16:59.901Z,143.73
2023-01-26T20:19:34.823Z,141.73
2023-01-26T20:22:06.036Z,140.07
2023-01-26T20:24:41.305Z,129.40
2023-01-26T20:27:12.437Z,123.15
2023-01-26T20:29:43.622Z,127.45
2023-01-26T20:34:45.136Z,118.03
2023-01-26T20:37:16.053Z,132.38
2023-01-26T20:39:50.689Z,131.13
2023-01-26T20:42:21.443Z,154.90
2023-01-26T20:44:52.952Z,154.05
2023-01-26T20:47:24.624Z,221.05
2023-01-26T20:49:56.591Z,238.73
2023-01-26T20:52:27.441Z,217.85
2023-01-26T20:55:02.278Z,168.85
2023-01-26T20:57:33.045Z,242.80
2023-01-26T21:00:04.561Z,401.38
2023-01-26T21:02:36.184Z,379.73
2023-01-26T21:05:09.244Z,349.20
2023-01-26T21:07:40.629Z,185.57
2023-01-26T21:10:14.806Z,144.82
2023-01-26T21:12:45.806Z,140.73
2023-01-26T21:15:16.990Z,136.07
2023-01-26T21:20:20.036Z,121.10
2023-01-26T21:22:51.598Z,112.45
2023-01-26T21:25:25.596Z,117.78
2023-01-26T21:27:56.957Z,115.53
2023-01-26T21:30:28.627Z,101.03
2023-01-26T21:33:00.250Z,96.63
2023-01-26T21:35:31.810Z,106.95
2023-01-26T21:38:03.418Z,104.38
2023-01-26T21:40:37.207Z,93.38
2023-01-26T21:43:07.901Z,83.55
2023-01-26T21:45:51.186Z,77.25
2023-01-26T21:48:31.906Z,76.28
2023-01-26T21:51:15.562Z,82.68
2023-01-26T21:53:47.849Z,87.65
2023-01-26T21:56:22.085Z,92.35
2023-01-26T21:59:02.853Z,96.40
2023-01-26T22:01:35.234Z,95.25
2023-01-26T22:04:12.320Z,96.03
2023-01-26T22:06:43.792Z,160.02
2023-01-26T22:09:16.400Z,155.10
2023-01-26T22:11:50.719Z,176.00
2023-01-26T22:14:23.459Z,125.53
2023-01-26T22:16:54.954Z,96.28
2023-01-26T22:19:26.199Z,107.85
2023-01-26T22:21:57.442Z,101.40
2023-01-26T22:27:02.066Z,89.53
2023-01-26T22:29:32.849Z,92.88
2023-01-26T22:32:04.432Z,85.20
2023-01-26T22:34:36.139Z,77.82
2023-01-26T22:37:07.272Z,87.00
2023-01-26T22:42:12.178Z,91.75
2023-01-26T22:44:43.496Z,95.22
2023-01-26T22:47:14.602Z,101.35
2023-01-26T22:49:45.600Z,93.85
2023-01-26T22:52:16.766Z,97.22
2023-01-26T22:54:47.628Z,92.05
2023-01-26T22:57:21.383Z,92.13
2023-01-26T22:59:53.509Z,97.82
2023-01-26T23:02:24.694Z,92.63
2023-01-26T23:07:26.383Z,96.00
2023-01-26T23:12:30.495Z,94.22
2023-01-26T23:15:01.252Z,91.65
2023-01-26T23:17:32.987Z,101.50
2023-01-26T23:20:04.549Z,93.88
2023-01-26T23:22:35.986Z,96.07
2023-01-26T23:25:20.625Z,100.38
2023-01-26T23:27:54.817Z,96.47
2023-01-26T23:30:25.680Z,100.00
2023-01-26T23:32:58.883Z,98.25
2023-01-26T23:35:29.945Z,97.00
2023-01-26T23:38:01.880Z,107.05
2023-01-26T23:40:32.793Z,100.82
2023-01-26T23:43:16.175Z,94.78
2023-01-26T23:45:49.488Z,95.93
2023-01-26T23:48:21.871Z,102.88
2023-01-26T23:50:58.570Z,98.25
2023-01-26T23:53:32.738Z,101.40
2023-01-26T23:56:09.388Z,107.30
2023-01-26T23:58:43.082Z,101.65
